Bookmark and Share
Track history (hours):
 

Partenope

Last reported at 2014-Apr-21 03:31 UTC. Time now 2014-Apr-21 12:24 UTC.
Position N 38°05' E 015°34'.

Length 186 m; draft 6.2 m.

Type: Passenger vessel. MMSI: 247060500.

NotesDate/timePositionNaut miles runAvg speedWind from/ knotsBaromVisibWave heightAir tempDewpointWater temp
2014-Apr-21 03:31N 38°05' E 015°34'1413.2
2014-Apr-21 02:27N 38°19' E 015°38'10018.7
2014-Apr-20 21:05N 39°49' E 014°41'1019.0
2014-Apr-20 20:33N 39°58' E 014°36'1919.1
2014-Apr-20 19:33N 40°16' E 014°27'1919.0
2014-Apr-20 18:33N 40°34' E 014°17'17 3.1
2014-Apr-20 13:06N 40°50' E 014°16'0 0.0
2014-Apr-20 12:14N 40°50' E 014°16'0 0.0
2014-Apr-20 10:23N 40°50' E 014°16'1 0.4
2014-Apr-20 08:33N 40°50' E 014°17'1919.3
2014-Apr-20 07:33N 40°31' E 014°19'150 5.5
2014-Apr-19 04:13N 38°13' E 015°36'13719.1
2014-Apr-18 21:03N 40°19' E 014°25'1120.3
2014-Apr-18 20:31N 40°29' E 014°20'2020.3
2014-Apr-18 19:33N 40°48' E 014°17'1 0.1
2014-Apr-18 08:18N 40°50' E 014°17'1520.3
2014-Apr-18 07:33N 40°35' E 014°17'21 0.6
2014-Apr-16 22:08N 40°15' E 014°28'1119.8
2014-Apr-16 21:33N 40°26' E 014°23'2019.7
2014-Apr-16 20:34N 40°45' E 014°17'5 0.5
2014-Apr-16 10:16N 40°50' E 014°16'1216.3
2014-Apr-16 09:33N 40°39' E 014°17'2019.2
2014-Apr-16 08:32N 40°20' E 014°24'23 0.6
2014-Apr-14 19:34N 40°42' E 014°16'16 0.3
2014-Apr-12 20:28N 40°27' E 014°21'1920.9
2014-Apr-12 19:33N 40°45' E 014°17'5 0.3
2014-Apr-12 05:14N 40°50' E 014°16'1319.3
2014-Apr-12 04:33N 40°37' E 014°17'  

Dump ship's entire track history

sailing weather and tide predictions

Partenope — ICCZ — position and weather